sensor_id;sensor_type;location;lat;lon;timestamp;P1;durP1;ratioP1;P2;durP2;ratioP2
15063;SDS011;7631;52.088;5.088;2022-12-20T00:01:12;2.43;;;2.23;;
15063;SDS011;7631;52.088;5.088;2022-12-20T00:03:37;2.50;;;2.30;;
15063;SDS011;7631;52.088;5.088;2022-12-20T00:06:03;2.97;;;2.53;;
15063;SDS011;7631;52.088;5.088;2022-12-20T00:08:28;3.00;;;2.40;;
15063;SDS011;7631;52.088;5.088;2022-12-20T00:10:54;2.57;;;2.33;;
15063;SDS011;7631;52.088;5.088;2022-12-20T00:13:19;2.97;;;2.40;;
15063;SDS011;7631;52.088;5.088;2022-12-20T00:15:44;2.93;;;2.50;;
15063;SDS011;7631;52.088;5.088;2022-12-20T00:18:09;3.07;;;2.60;;
15063;SDS011;7631;52.088;5.088;2022-12-20T00:20:35;3.60;;;2.63;;
15063;SDS011;7631;52.088;5.088;2022-12-20T00:23:00;3.57;;;2.60;;
15063;SDS011;7631;52.088;5.088;2022-12-20T00:25:25;2.73;;;2.40;;
15063;SDS011;7631;52.088;5.088;2022-12-20T00:27:51;4.57;;;2.67;;
15063;SDS011;7631;52.088;5.088;2022-12-20T00:30:16;2.80;;;2.50;;
15063;SDS011;7631;52.088;5.088;2022-12-20T00:32:42;3.10;;;2.80;;
15063;SDS011;7631;52.088;5.088;2022-12-20T00:35:07;3.50;;;2.33;;
15063;SDS011;7631;52.088;5.088;2022-12-20T00:37:32;3.53;;;2.60;;
15063;SDS011;7631;52.088;5.088;2022-12-20T00:39:58;3.77;;;2.70;;
15063;SDS011;7631;52.088;5.088;2022-12-20T00:42:23;3.83;;;2.83;;
15063;SDS011;7631;52.088;5.088;2022-12-20T00:44:48;2.73;;;2.43;;
15063;SDS011;7631;52.088;5.088;2022-12-20T00:47:13;3.07;;;2.37;;
15063;SDS011;7631;52.088;5.088;2022-12-20T00:49:39;3.43;;;2.50;;
15063;SDS011;7631;52.088;5.088;2022-12-20T00:52:04;2.50;;;2.20;;
15063;SDS011;7631;52.088;5.088;2022-12-20T00:54:29;2.80;;;2.40;;
15063;SDS011;7631;52.088;5.088;2022-12-20T00:56:54;3.50;;;2.40;;
15063;SDS011;7631;52.088;5.088;2022-12-20T00:59:19;3.13;;;2.23;;
15063;SDS011;7631;52.088;5.088;2022-12-20T01:01:45;3.07;;;2.40;;
15063;SDS011;7631;52.088;5.088;2022-12-20T01:04:10;3.80;;;2.60;;
15063;SDS011;7631;52.088;5.088;2022-12-20T01:06:36;3.23;;;2.57;;
15063;SDS011;7631;52.088;5.088;2022-12-20T01:09:01;3.43;;;2.63;;
15063;SDS011;7631;52.088;5.088;2022-12-20T01:11:28;2.87;;;2.50;;
15063;SDS011;7631;52.088;5.088;2022-12-20T01:13:54;3.33;;;2.43;;
15063;SDS011;7631;52.088;5.088;2022-12-20T01:16:24;3.97;;;2.37;;
15063;SDS011;7631;52.088;5.088;2022-12-20T01:18:50;2.73;;;2.37;;
15063;SDS011;7631;52.088;5.088;2022-12-20T01:21:16;3.60;;;2.50;;
15063;SDS011;7631;52.088;5.088;2022-12-20T01:23:42;2.93;;;2.53;;
15063;SDS011;7631;52.088;5.088;2022-12-20T01:26:09;2.70;;;2.50;;
15063;SDS011;7631;52.088;5.088;2022-12-20T01:28:35;2.97;;;2.40;;
15063;SDS011;7631;52.088;5.088;2022-12-20T01:31:00;2.97;;;2.57;;
15063;SDS011;7631;52.088;5.088;2022-12-20T01:33:26;3.43;;;2.50;;
15063;SDS011;7631;52.088;5.088;2022-12-20T01:35:55;3.20;;;2.30;;
15063;SDS011;7631;52.088;5.088;2022-12-20T01:38:21;2.77;;;2.30;;
15063;SDS011;7631;52.088;5.088;2022-12-20T01:40:46;2.17;;;1.97;;
15063;SDS011;7631;52.088;5.088;2022-12-20T01:43:12;3.07;;;2.47;;
15063;SDS011;7631;52.088;5.088;2022-12-20T01:45:39;3.93;;;2.47;;
15063;SDS011;7631;52.088;5.088;2022-12-20T01:48:04;3.50;;;2.50;;
15063;SDS011;7631;52.088;5.088;2022-12-20T01:50:29;3.00;;;2.60;;
15063;SDS011;7631;52.088;5.088;2022-12-20T01:52:54;2.93;;;2.07;;
15063;SDS011;7631;52.088;5.088;2022-12-20T01:55:22;2.60;;;2.10;;
15063;SDS011;7631;52.088;5.088;2022-12-20T01:57:53;2.40;;;2.13;;
15063;SDS011;7631;52.088;5.088;2022-12-20T02:00:20;2.50;;;2.10;;
15063;SDS011;7631;52.088;5.088;2022-12-20T02:02:46;3.37;;;2.40;;
15063;SDS011;7631;52.088;5.088;2022-12-20T02:05:12;2.37;;;2.17;;
15063;SDS011;7631;52.088;5.088;2022-12-20T02:07:38;3.17;;;2.17;;
15063;SDS011;7631;52.088;5.088;2022-12-20T02:10:04;2.87;;;2.10;;
15063;SDS011;7631;52.088;5.088;2022-12-20T02:12:37;2.47;;;2.20;;
15063;SDS011;7631;52.088;5.088;2022-12-20T02:17:42;2.87;;;2.57;;
15063;SDS011;7631;52.088;5.088;2022-12-20T02:20:21;3.50;;;2.73;;
15063;SDS011;7631;52.088;5.088;2022-12-20T02:28:44;2.90;;;2.57;;
15063;SDS011;7631;52.088;5.088;2022-12-20T02:31:13;3.27;;;2.43;;
15063;SDS011;7631;52.088;5.088;2022-12-20T02:33:41;4.17;;;2.43;;
15063;SDS011;7631;52.088;5.088;2022-12-20T02:36:08;2.90;;;2.30;;
15063;SDS011;7631;52.088;5.088;2022-12-20T02:38:35;3.97;;;2.00;;
15063;SDS011;7631;52.088;5.088;2022-12-20T02:41:43;3.43;;;2.20;;
15063;SDS011;7631;52.088;5.088;2022-12-20T02:43:51;2.80;;;2.07;;
15063;SDS011;7631;52.088;5.088;2022-12-20T02:46:37;2.93;;;2.40;;
15063;SDS011;7631;52.088;5.088;2022-12-20T02:49:04;2.40;;;2.20;;
15063;SDS011;7631;52.088;5.088;2022-12-20T02:51:31;2.33;;;2.03;;
15063;SDS011;7631;52.088;5.088;2022-12-20T02:53:57;2.30;;;2.10;;
15063;SDS011;7631;52.088;5.088;2022-12-20T02:56:34;2.77;;;2.30;;
15063;SDS011;7631;52.088;5.088;2022-12-20T03:01:27;2.47;;;2.00;;
15063;SDS011;7631;52.088;5.088;2022-12-20T03:03:53;2.37;;;2.03;;
15063;SDS011;7631;52.088;5.088;2022-12-20T03:06:19;3.20;;;1.97;;
15063;SDS011;7631;52.088;5.088;2022-12-20T03:08:44;2.50;;;2.10;;
15063;SDS011;7631;52.088;5.088;2022-12-20T03:11:10;2.73;;;2.03;;
15063;SDS011;7631;52.088;5.088;2022-12-20T03:13:35;2.53;;;2.23;;
15063;SDS011;7631;52.088;5.088;2022-12-20T03:16:01;3.43;;;2.27;;
15063;SDS011;7631;52.088;5.088;2022-12-20T03:18:26;2.30;;;2.10;;
15063;SDS011;7631;52.088;5.088;2022-12-20T03:20:51;2.60;;;1.70;;
15063;SDS011;7631;52.088;5.088;2022-12-20T03:23:16;3.30;;;2.60;;
15063;SDS011;7631;52.088;5.088;2022-12-20T03:25:42;2.30;;;2.10;;
15063;SDS011;7631;52.088;5.088;2022-12-20T03:28:07;3.67;;;2.17;;
15063;SDS011;7631;52.088;5.088;2022-12-20T03:30:32;2.37;;;2.03;;
15063;SDS011;7631;52.088;5.088;2022-12-20T03:32:57;3.13;;;2.30;;
15063;SDS011;7631;52.088;5.088;2022-12-20T03:35:22;2.43;;;1.90;;
15063;SDS011;7631;52.088;5.088;2022-12-20T03:37:48;2.50;;;2.27;;
15063;SDS011;7631;52.088;5.088;2022-12-20T03:40:13;2.03;;;1.80;;
15063;SDS011;7631;52.088;5.088;2022-12-20T03:42:39;2.43;;;2.13;;
15063;SDS011;7631;52.088;5.088;2022-12-20T03:45:05;2.30;;;2.00;;
15063;SDS011;7631;52.088;5.088;2022-12-20T03:47:30;2.63;;;1.80;;
15063;SDS011;7631;52.088;5.088;2022-12-20T03:49:56;2.60;;;1.90;;
15063;SDS011;7631;52.088;5.088;2022-12-20T03:52:21;2.23;;;2.00;;
15063;SDS011;7631;52.088;5.088;2022-12-20T03:54:46;2.33;;;2.00;;
15063;SDS011;7631;52.088;5.088;2022-12-20T03:57:12;2.80;;;2.30;;
15063;SDS011;7631;52.088;5.088;2022-12-20T03:59:37;3.00;;;2.20;;
15063;SDS011;7631;52.088;5.088;2022-12-20T04:02:03;2.47;;;1.90;;
15063;SDS011;7631;52.088;5.088;2022-12-20T04:04:28;3.23;;;2.20;;
15063;SDS011;7631;52.088;5.088;2022-12-20T04:06:53;2.27;;;2.07;;
15063;SDS011;7631;52.088;5.088;2022-12-20T04:09:19;2.33;;;1.80;;
15063;SDS011;7631;52.088;5.088;2022-12-20T04:11:44;2.73;;;1.87;;
15063;SDS011;7631;52.088;5.088;2022-12-20T04:14:09;2.30;;;1.77;;
15063;SDS011;7631;52.088;5.088;2022-12-20T04:16:34;2.30;;;2.00;;
15063;SDS011;7631;52.088;5.088;2022-12-20T04:19:00;2.30;;;1.93;;
15063;SDS011;7631;52.088;5.088;2022-12-20T04:21:29;3.30;;;2.30;;
15063;SDS011;7631;52.088;5.088;2022-12-20T04:23:55;2.70;;;2.10;;
15063;SDS011;7631;52.088;5.088;2022-12-20T04:26:20;2.33;;;1.93;;
15063;SDS011;7631;52.088;5.088;2022-12-20T04:28:45;2.10;;;1.90;;
15063;SDS011;7631;52.088;5.088;2022-12-20T04:31:11;2.50;;;1.90;;
15063;SDS011;7631;52.088;5.088;2022-12-20T04:33:36;2.33;;;1.83;;
15063;SDS011;7631;52.088;5.088;2022-12-20T04:36:02;3.00;;;2.27;;
15063;SDS011;7631;52.088;5.088;2022-12-20T04:38:27;2.37;;;2.10;;
15063;SDS011;7631;52.088;5.088;2022-12-20T04:40:52;2.30;;;2.10;;
15063;SDS011;7631;52.088;5.088;2022-12-20T04:43:18;2.23;;;2.03;;
15063;SDS011;7631;52.088;5.088;2022-12-20T04:45:46;2.27;;;2.07;;
15063;SDS011;7631;52.088;5.088;2022-12-20T04:48:11;1.87;;;1.67;;
15063;SDS011;7631;52.088;5.088;2022-12-20T04:50:36;2.60;;;1.90;;
15063;SDS011;7631;52.088;5.088;2022-12-20T04:53:02;2.87;;;2.27;;
15063;SDS011;7631;52.088;5.088;2022-12-20T04:55:45;2.80;;;2.00;;
15063;SDS011;7631;52.088;5.088;2022-12-20T04:58:10;2.20;;;2.00;;
15063;SDS011;7631;52.088;5.088;2022-12-20T05:00:36;3.13;;;2.13;;
15063;SDS011;7631;52.088;5.088;2022-12-20T05:03:01;4.10;;;2.17;;
15063;SDS011;7631;52.088;5.088;2022-12-20T05:05:26;2.50;;;2.17;;
15063;SDS011;7631;52.088;5.088;2022-12-20T05:07:52;2.70;;;1.90;;
15063;SDS011;7631;52.088;5.088;2022-12-20T05:10:17;2.30;;;1.80;;
15063;SDS011;7631;52.088;5.088;2022-12-20T05:12:42;3.03;;;2.43;;
15063;SDS011;7631;52.088;5.088;2022-12-20T05:15:08;2.30;;;1.80;;
15063;SDS011;7631;52.088;5.088;2022-12-20T05:17:34;3.60;;;2.20;;
15063;SDS011;7631;52.088;5.088;2022-12-20T05:19:59;2.60;;;2.00;;
15063;SDS011;7631;52.088;5.088;2022-12-20T05:22:24;2.20;;;2.00;;
15063;SDS011;7631;52.088;5.088;2022-12-20T05:25:11;3.70;;;2.30;;
15063;SDS011;7631;52.088;5.088;2022-12-20T05:27:55;2.37;;;1.90;;
15063;SDS011;7631;52.088;5.088;2022-12-20T05:30:21;2.30;;;2.10;;
15063;SDS011;7631;52.088;5.088;2022-12-20T05:32:46;2.10;;;1.90;;
15063;SDS011;7631;52.088;5.088;2022-12-20T05:35:12;3.50;;;2.50;;
15063;SDS011;7631;52.088;5.088;2022-12-20T05:37:37;3.23;;;2.10;;
15063;SDS011;7631;52.088;5.088;2022-12-20T05:40:02;1.87;;;1.73;;
15063;SDS011;7631;52.088;5.088;2022-12-20T05:42:28;2.40;;;2.20;;
15063;SDS011;7631;52.088;5.088;2022-12-20T05:44:53;2.30;;;1.83;;
15063;SDS011;7631;52.088;5.088;2022-12-20T05:47:18;2.07;;;1.80;;
15063;SDS011;7631;52.088;5.088;2022-12-20T05:49:44;2.13;;;1.90;;
15063;SDS011;7631;52.088;5.088;2022-12-20T05:52:09;2.97;;;1.73;;
15063;SDS011;7631;52.088;5.088;2022-12-20T05:54:34;2.80;;;1.90;;
15063;SDS011;7631;52.088;5.088;2022-12-20T05:57:00;2.50;;;1.87;;
15063;SDS011;7631;52.088;5.088;2022-12-20T05:59:25;2.60;;;2.30;;
15063;SDS011;7631;52.088;5.088;2022-12-20T06:01:50;2.10;;;1.90;;
15063;SDS011;7631;52.088;5.088;2022-12-20T06:04:15;2.63;;;2.30;;
15063;SDS011;7631;52.088;5.088;2022-12-20T06:06:40;3.20;;;1.93;;
15063;SDS011;7631;52.088;5.088;2022-12-20T06:09:06;2.67;;;1.97;;
15063;SDS011;7631;52.088;5.088;2022-12-20T06:11:31;2.10;;;1.60;;
15063;SDS011;7631;52.088;5.088;2022-12-20T06:13:56;2.20;;;1.60;;
15063;SDS011;7631;52.088;5.088;2022-12-20T06:16:21;3.07;;;2.03;;
15063;SDS011;7631;52.088;5.088;2022-12-20T06:18:47;3.23;;;1.97;;
15063;SDS011;7631;52.088;5.088;2022-12-20T06:21:12;2.70;;;1.93;;
15063;SDS011;7631;52.088;5.088;2022-12-20T06:23:38;3.13;;;2.07;;
15063;SDS011;7631;52.088;5.088;2022-12-20T06:26:04;2.57;;;2.07;;
15063;SDS011;7631;52.088;5.088;2022-12-20T06:28:29;2.30;;;2.00;;
15063;SDS011;7631;52.088;5.088;2022-12-20T06:30:55;2.10;;;1.90;;
15063;SDS011;7631;52.088;5.088;2022-12-20T06:33:20;2.00;;;1.70;;
15063;SDS011;7631;52.088;5.088;2022-12-20T06:35:46;2.10;;;1.90;;
15063;SDS011;7631;52.088;5.088;2022-12-20T06:38:13;2.13;;;1.80;;
15063;SDS011;7631;52.088;5.088;2022-12-20T06:40:38;2.37;;;2.00;;
15063;SDS011;7631;52.088;5.088;2022-12-20T06:43:03;2.40;;;1.90;;
15063;SDS011;7631;52.088;5.088;2022-12-20T06:45:28;2.97;;;2.03;;
15063;SDS011;7631;52.088;5.088;2022-12-20T06:47:54;2.80;;;2.00;;
15063;SDS011;7631;52.088;5.088;2022-12-20T06:50:20;3.07;;;2.10;;
15063;SDS011;7631;52.088;5.088;2022-12-20T06:52:46;2.97;;;2.10;;
15063;SDS011;7631;52.088;5.088;2022-12-20T06:55:11;2.70;;;2.20;;
15063;SDS011;7631;52.088;5.088;2022-12-20T06:57:36;2.00;;;1.77;;
15063;SDS011;7631;52.088;5.088;2022-12-20T07:00:02;2.40;;;1.80;;
15063;SDS011;7631;52.088;5.088;2022-12-20T07:02:27;1.87;;;1.67;;
15063;SDS011;7631;52.088;5.088;2022-12-20T07:04:53;2.20;;;2.00;;
15063;SDS011;7631;52.088;5.088;2022-12-20T07:07:18;2.00;;;1.70;;
15063;SDS011;7631;52.088;5.088;2022-12-20T07:09:44;2.93;;;1.80;;
15063;SDS011;7631;52.088;5.088;2022-12-20T07:12:09;2.40;;;2.00;;
15063;SDS011;7631;52.088;5.088;2022-12-20T07:14:35;2.37;;;1.90;;
15063;SDS011;7631;52.088;5.088;2022-12-20T07:17:00;2.50;;;1.93;;
15063;SDS011;7631;52.088;5.088;2022-12-20T07:19:25;2.33;;;2.00;;
15063;SDS011;7631;52.088;5.088;2022-12-20T07:21:51;2.00;;;1.80;;
15063;SDS011;7631;52.088;5.088;2022-12-20T07:24:16;3.13;;;1.83;;
15063;SDS011;7631;52.088;5.088;2022-12-20T07:26:44;2.20;;;1.80;;
15063;SDS011;7631;52.088;5.088;2022-12-20T07:29:10;2.27;;;2.00;;
15063;SDS011;7631;52.088;5.088;2022-12-20T07:31:36;2.63;;;1.63;;
15063;SDS011;7631;52.088;5.088;2022-12-20T07:34:01;1.90;;;1.60;;
15063;SDS011;7631;52.088;5.088;2022-12-20T07:36:26;1.87;;;1.50;;
15063;SDS011;7631;52.088;5.088;2022-12-20T07:38:52;2.87;;;1.97;;
15063;SDS011;7631;52.088;5.088;2022-12-20T07:41:17;3.40;;;2.40;;
15063;SDS011;7631;52.088;5.088;2022-12-20T07:43:43;2.83;;;2.07;;
15063;SDS011;7631;52.088;5.088;2022-12-20T07:46:14;3.87;;;2.03;;
15063;SDS011;7631;52.088;5.088;2022-12-20T07:48:40;2.33;;;2.00;;
15063;SDS011;7631;52.088;5.088;2022-12-20T07:51:10;3.40;;;2.30;;
15063;SDS011;7631;52.088;5.088;2022-12-20T07:53:37;4.43;;;2.03;;
15063;SDS011;7631;52.088;5.088;2022-12-20T07:56:03;3.00;;;1.73;;
15063;SDS011;7631;52.088;5.088;2022-12-20T07:58:30;3.07;;;2.40;;
15063;SDS011;7631;52.088;5.088;2022-12-20T08:00:56;2.10;;;1.90;;
15063;SDS011;7631;52.088;5.088;2022-12-20T08:03:26;2.20;;;1.90;;
15063;SDS011;7631;52.088;5.088;2022-12-20T08:05:54;2.53;;;1.60;;
15063;SDS011;7631;52.088;5.088;2022-12-20T08:08:20;2.03;;;1.70;;
15063;SDS011;7631;52.088;5.088;2022-12-20T08:10:46;1.87;;;1.57;;
15063;SDS011;7631;52.088;5.088;2022-12-20T08:13:12;2.13;;;1.83;;
15063;SDS011;7631;52.088;5.088;2022-12-20T08:15:37;3.07;;;1.83;;
15063;SDS011;7631;52.088;5.088;2022-12-20T08:18:02;3.60;;;1.90;;
15063;SDS011;7631;52.088;5.088;2022-12-20T08:20:28;2.30;;;1.90;;
15063;SDS011;7631;52.088;5.088;2022-12-20T08:22:53;1.93;;;1.60;;
15063;SDS011;7631;52.088;5.088;2022-12-20T08:25:18;2.30;;;1.80;;
15063;SDS011;7631;52.088;5.088;2022-12-20T08:27:45;2.50;;;2.00;;
15063;SDS011;7631;52.088;5.088;2022-12-20T08:30:10;1.87;;;1.73;;
15063;SDS011;7631;52.088;5.088;2022-12-20T08:32:36;2.73;;;1.77;;
15063;SDS011;7631;52.088;5.088;2022-12-20T08:35:02;2.07;;;1.70;;
15063;SDS011;7631;52.088;5.088;2022-12-20T08:37:27;1.77;;;1.67;;
15063;SDS011;7631;52.088;5.088;2022-12-20T08:39:52;2.53;;;1.70;;
15063;SDS011;7631;52.088;5.088;2022-12-20T08:42:18;3.27;;;2.07;;
15063;SDS011;7631;52.088;5.088;2022-12-20T08:44:43;2.07;;;1.60;;
15063;SDS011;7631;52.088;5.088;2022-12-20T08:47:08;1.87;;;1.53;;
15063;SDS011;7631;52.088;5.088;2022-12-20T08:49:34;2.10;;;1.90;;
15063;SDS011;7631;52.088;5.088;2022-12-20T08:51:59;2.60;;;1.97;;
15063;SDS011;7631;52.088;5.088;2022-12-20T08:54:25;2.57;;;1.87;;
15063;SDS011;7631;52.088;5.088;2022-12-20T08:56:50;2.80;;;1.70;;
15063;SDS011;7631;52.088;5.088;2022-12-20T08:59:15;2.10;;;1.50;;
15063;SDS011;7631;52.088;5.088;2022-12-20T09:01:40;1.97;;;1.77;;
15063;SDS011;7631;52.088;5.088;2022-12-20T09:04:06;2.87;;;1.73;;
15063;SDS011;7631;52.088;5.088;2022-12-20T09:06:33;1.93;;;1.60;;
15063;SDS011;7631;52.088;5.088;2022-12-20T09:08:58;2.47;;;1.67;;
15063;SDS011;7631;52.088;5.088;2022-12-20T09:11:25;2.03;;;1.63;;
15063;SDS011;7631;52.088;5.088;2022-12-20T09:13:51;2.00;;;1.60;;
15063;SDS011;7631;52.088;5.088;2022-12-20T09:16:18;2.30;;;1.60;;
15063;SDS011;7631;52.088;5.088;2022-12-20T09:18:46;2.17;;;1.67;;
15063;SDS011;7631;52.088;5.088;2022-12-20T09:21:12;2.00;;;1.80;;
15063;SDS011;7631;52.088;5.088;2022-12-20T09:23:38;2.50;;;1.90;;
15063;SDS011;7631;52.088;5.088;2022-12-20T09:26:06;1.70;;;1.40;;
15063;SDS011;7631;52.088;5.088;2022-12-20T09:28:32;2.13;;;1.70;;
15063;SDS011;7631;52.088;5.088;2022-12-20T09:31:01;2.07;;;1.50;;
15063;SDS011;7631;52.088;5.088;2022-12-20T09:33:27;2.13;;;1.57;;
15063;SDS011;7631;52.088;5.088;2022-12-20T09:35:53;2.57;;;1.57;;
15063;SDS011;7631;52.088;5.088;2022-12-20T09:38:18;2.90;;;2.20;;
15063;SDS011;7631;52.088;5.088;2022-12-20T09:40:44;2.00;;;1.47;;
15063;SDS011;7631;52.088;5.088;2022-12-20T09:43:11;2.13;;;1.73;;
15063;SDS011;7631;52.088;5.088;2022-12-20T09:45:36;2.13;;;1.70;;
15063;SDS011;7631;52.088;5.088;2022-12-20T09:48:02;2.37;;;1.70;;
15063;SDS011;7631;52.088;5.088;2022-12-20T09:50:45;2.13;;;1.60;;
15063;SDS011;7631;52.088;5.088;2022-12-20T09:53:23;2.83;;;2.00;;
15063;SDS011;7631;52.088;5.088;2022-12-20T09:56:12;2.37;;;1.70;;
15063;SDS011;7631;52.088;5.088;2022-12-20T10:01:20;2.20;;;1.53;;
15063;SDS011;7631;52.088;5.088;2022-12-20T10:03:46;3.47;;;1.77;;
15063;SDS011;7631;52.088;5.088;2022-12-20T10:08:41;2.97;;;1.63;;
15063;SDS011;7631;52.088;5.088;2022-12-20T10:11:10;2.87;;;1.80;;
15063;SDS011;7631;52.088;5.088;2022-12-20T10:21:29;2.23;;;1.70;;
15063;SDS011;7631;52.088;5.088;2022-12-20T10:24:01;2.07;;;1.70;;
15063;SDS011;7631;52.088;5.088;2022-12-20T10:26:27;2.43;;;1.70;;
15063;SDS011;7631;52.088;5.088;2022-12-20T10:28:52;2.43;;;2.00;;
15063;SDS011;7631;52.088;5.088;2022-12-20T10:31:18;2.63;;;1.80;;
15063;SDS011;7631;52.088;5.088;2022-12-20T10:33:43;2.40;;;1.97;;
15063;SDS011;7631;52.088;5.088;2022-12-20T10:36:22;2.50;;;1.80;;
15063;SDS011;7631;52.088;5.088;2022-12-20T10:38:50;2.43;;;1.97;;
15063;SDS011;7631;52.088;5.088;2022-12-20T10:41:17;3.40;;;1.93;;
15063;SDS011;7631;52.088;5.088;2022-12-20T10:43:43;2.03;;;1.73;;
15063;SDS011;7631;52.088;5.088;2022-12-20T10:46:09;2.53;;;1.90;;
15063;SDS011;7631;52.088;5.088;2022-12-20T10:48:36;3.17;;;1.70;;
15063;SDS011;7631;52.088;5.088;2022-12-20T10:53:33;2.03;;;1.63;;
15063;SDS011;7631;52.088;5.088;2022-12-20T10:58:49;3.53;;;2.10;;
15063;SDS011;7631;52.088;5.088;2022-12-20T11:01:17;3.23;;;1.90;;
15063;SDS011;7631;52.088;5.088;2022-12-20T11:04:04;2.87;;;1.93;;
15063;SDS011;7631;52.088;5.088;2022-12-20T11:06:38;2.00;;;1.63;;
15063;SDS011;7631;52.088;5.088;2022-12-20T11:14:26;1.33;;;1.23;;
15063;SDS011;7631;52.088;5.088;2022-12-20T11:16:52;2.40;;;1.50;;
15063;SDS011;7631;52.088;5.088;2022-12-20T11:21:53;1.93;;;1.60;;
15063;SDS011;7631;52.088;5.088;2022-12-20T11:26:57;1.93;;;1.50;;
15063;SDS011;7631;52.088;5.088;2022-12-20T11:29:34;3.10;;;1.70;;
15063;SDS011;7631;52.088;5.088;2022-12-20T11:37:24;3.07;;;1.90;;
15063;SDS011;7631;52.088;5.088;2022-12-20T11:45:14;1.87;;;1.60;;
15063;SDS011;7631;52.088;5.088;2022-12-20T11:52:59;1.70;;;1.60;;
15063;SDS011;7631;52.088;5.088;2022-12-20T11:55:26;2.10;;;1.77;;
15063;SDS011;7631;52.088;5.088;2022-12-20T11:58:01;2.40;;;1.93;;
15063;SDS011;7631;52.088;5.088;2022-12-20T12:00:28;2.63;;;1.73;;
15063;SDS011;7631;52.088;5.088;2022-12-20T12:03:03;2.43;;;1.80;;
15063;SDS011;7631;52.088;5.088;2022-12-20T12:08:10;1.90;;;1.80;;
15063;SDS011;7631;52.088;5.088;2022-12-20T12:10:38;2.20;;;1.90;;
15063;SDS011;7631;52.088;5.088;2022-12-20T12:13:16;1.80;;;1.70;;
15063;SDS011;7631;52.088;5.088;2022-12-20T12:18:19;1.70;;;1.60;;
15063;SDS011;7631;52.088;5.088;2022-12-20T12:20:49;2.30;;;1.87;;
15063;SDS011;7631;52.088;5.088;2022-12-20T12:25:44;1.97;;;1.73;;
15063;SDS011;7631;52.088;5.088;2022-12-20T12:28:11;3.20;;;2.10;;
15063;SDS011;7631;52.088;5.088;2022-12-20T12:30:38;2.00;;;1.60;;
15063;SDS011;7631;52.088;5.088;2022-12-20T12:33:07;2.87;;;2.07;;
15063;SDS011;7631;52.088;5.088;2022-12-20T12:43:22;2.20;;;2.00;;
15063;SDS011;7631;52.088;5.088;2022-12-20T12:45:57;2.60;;;2.03;;
15063;SDS011;7631;52.088;5.088;2022-12-20T12:48:30;1.73;;;1.63;;
15063;SDS011;7631;52.088;5.088;2022-12-20T12:50:58;2.17;;;1.70;;
15063;SDS011;7631;52.088;5.088;2022-12-20T12:55:54;2.43;;;2.10;;
15063;SDS011;7631;52.088;5.088;2022-12-20T13:03:39;2.50;;;1.93;;
15063;SDS011;7631;52.088;5.088;2022-12-20T13:11:33;2.80;;;1.83;;
15063;SDS011;7631;52.088;5.088;2022-12-20T13:14:49;3.10;;;1.80;;
15063;SDS011;7631;52.088;5.088;2022-12-20T13:21:52;2.10;;;2.00;;
15063;SDS011;7631;52.088;5.088;2022-12-20T13:24:37;2.10;;;1.90;;
15063;SDS011;7631;52.088;5.088;2022-12-20T13:27:13;2.70;;;1.63;;
15063;SDS011;7631;52.088;5.088;2022-12-20T13:29:48;2.63;;;2.00;;
15063;SDS011;7631;52.088;5.088;2022-12-20T13:32:50;2.10;;;1.90;;
15063;SDS011;7631;52.088;5.088;2022-12-20T13:35:00;2.70;;;2.20;;
15063;SDS011;7631;52.088;5.088;2022-12-20T13:37:26;2.93;;;2.17;;
15063;SDS011;7631;52.088;5.088;2022-12-20T13:39:52;2.40;;;1.90;;
15063;SDS011;7631;52.088;5.088;2022-12-20T13:44:51;2.90;;;2.10;;
15063;SDS011;7631;52.088;5.088;2022-12-20T13:49:49;1.70;;;1.60;;
15063;SDS011;7631;52.088;5.088;2022-12-20T13:52:17;3.03;;;1.90;;
15063;SDS011;7631;52.088;5.088;2022-12-20T13:54:45;2.13;;;1.93;;
15063;SDS011;7631;52.088;5.088;2022-12-20T13:57:14;2.73;;;1.90;;
15063;SDS011;7631;52.088;5.088;2022-12-20T13:59:42;2.57;;;1.90;;
15063;SDS011;7631;52.088;5.088;2022-12-20T14:02:09;1.77;;;1.57;;
15063;SDS011;7631;52.088;5.088;2022-12-20T14:04:40;1.77;;;1.63;;
15063;SDS011;7631;52.088;5.088;2022-12-20T14:07:07;2.50;;;2.20;;
15063;SDS011;7631;52.088;5.088;2022-12-20T14:09:34;2.40;;;2.20;;
15063;SDS011;7631;52.088;5.088;2022-12-20T14:14:28;1.87;;;1.70;;
15063;SDS011;7631;52.088;5.088;2022-12-20T14:16:53;2.10;;;1.67;;
15063;SDS011;7631;52.088;5.088;2022-12-20T14:19:18;1.93;;;1.77;;
15063;SDS011;7631;52.088;5.088;2022-12-20T14:21:44;3.00;;;2.13;;
15063;SDS011;7631;52.088;5.088;2022-12-20T14:24:16;2.10;;;1.90;;
15063;SDS011;7631;52.088;5.088;2022-12-20T14:26:43;3.03;;;2.10;;
15063;SDS011;7631;52.088;5.088;2022-12-20T14:29:09;2.47;;;2.20;;
15063;SDS011;7631;52.088;5.088;2022-12-20T14:31:42;2.10;;;1.90;;
15063;SDS011;7631;52.088;5.088;2022-12-20T14:36:34;2.20;;;2.00;;
15063;SDS011;7631;52.088;5.088;2022-12-20T14:39:00;1.73;;;1.63;;
15063;SDS011;7631;52.088;5.088;2022-12-20T14:43:54;2.10;;;1.90;;
15063;SDS011;7631;52.088;5.088;2022-12-20T14:46:19;2.30;;;2.10;;
15063;SDS011;7631;52.088;5.088;2022-12-20T14:48:46;1.77;;;1.63;;
15063;SDS011;7631;52.088;5.088;2022-12-20T14:51:12;3.00;;;2.10;;
15063;SDS011;7631;52.088;5.088;2022-12-20T14:53:38;2.20;;;2.00;;
15063;SDS011;7631;52.088;5.088;2022-12-20T14:56:04;2.23;;;2.03;;
15063;SDS011;7631;52.088;5.088;2022-12-20T14:58:32;2.63;;;2.20;;
15063;SDS011;7631;52.088;5.088;2022-12-20T15:01:00;2.20;;;2.00;;
15063;SDS011;7631;52.088;5.088;2022-12-20T15:03:25;2.63;;;2.03;;
15063;SDS011;7631;52.088;5.088;2022-12-20T15:10:49;2.43;;;2.00;;
15063;SDS011;7631;52.088;5.088;2022-12-20T15:13:16;2.40;;;2.20;;
15063;SDS011;7631;52.088;5.088;2022-12-20T15:15:41;2.33;;;2.07;;
15063;SDS011;7631;52.088;5.088;2022-12-20T15:18:10;2.40;;;2.20;;
15063;SDS011;7631;52.088;5.088;2022-12-20T15:20:36;2.37;;;2.17;;
15063;SDS011;7631;52.088;5.088;2022-12-20T15:23:01;2.30;;;2.10;;
15063;SDS011;7631;52.088;5.088;2022-12-20T15:25:27;2.40;;;2.20;;
15063;SDS011;7631;52.088;5.088;2022-12-20T15:27:54;2.40;;;2.20;;
15063;SDS011;7631;52.088;5.088;2022-12-20T15:30:19;2.30;;;2.10;;
15063;SDS011;7631;52.088;5.088;2022-12-20T15:32:44;2.30;;;2.10;;
15063;SDS011;7631;52.088;5.088;2022-12-20T15:35:13;2.23;;;1.93;;
15063;SDS011;7631;52.088;5.088;2022-12-20T15:37:39;2.80;;;2.50;;
15063;SDS011;7631;52.088;5.088;2022-12-20T15:40:04;2.47;;;2.00;;
15063;SDS011;7631;52.088;5.088;2022-12-20T15:42:30;2.50;;;2.20;;
15063;SDS011;7631;52.088;5.088;2022-12-20T15:44:55;2.40;;;2.20;;
15063;SDS011;7631;52.088;5.088;2022-12-20T15:47:21;2.70;;;2.50;;
15063;SDS011;7631;52.088;5.088;2022-12-20T15:49:46;2.50;;;2.30;;
15063;SDS011;7631;52.088;5.088;2022-12-20T15:52:15;2.40;;;2.20;;
15063;SDS011;7631;52.088;5.088;2022-12-20T15:54:42;2.70;;;2.50;;
15063;SDS011;7631;52.088;5.088;2022-12-20T15:57:08;2.80;;;2.27;;
15063;SDS011;7631;52.088;5.088;2022-12-20T15:59:35;2.77;;;2.57;;
15063;SDS011;7631;52.088;5.088;2022-12-20T16:02:00;2.50;;;2.30;;
15063;SDS011;7631;52.088;5.088;2022-12-20T16:04:25;2.40;;;2.20;;
15063;SDS011;7631;52.088;5.088;2022-12-20T16:06:52;2.73;;;2.53;;
15063;SDS011;7631;52.088;5.088;2022-12-20T16:09:17;2.80;;;2.50;;
15063;SDS011;7631;52.088;5.088;2022-12-20T16:11:43;2.60;;;2.40;;
15063;SDS011;7631;52.088;5.088;2022-12-20T16:14:12;2.53;;;2.33;;
15063;SDS011;7631;52.088;5.088;2022-12-20T16:16:38;2.53;;;2.33;;
15063;SDS011;7631;52.088;5.088;2022-12-20T16:19:04;3.30;;;2.40;;
15063;SDS011;7631;52.088;5.088;2022-12-20T16:21:30;2.60;;;2.40;;
15063;SDS011;7631;52.088;5.088;2022-12-20T16:23:56;2.57;;;2.37;;
15063;SDS011;7631;52.088;5.088;2022-12-20T16:26:22;2.43;;;2.23;;
15063;SDS011;7631;52.088;5.088;2022-12-20T16:28:48;2.53;;;2.20;;
15063;SDS011;7631;52.088;5.088;2022-12-20T16:33:42;2.47;;;2.27;;
15063;SDS011;7631;52.088;5.088;2022-12-20T16:36:10;2.80;;;2.60;;
15063;SDS011;7631;52.088;5.088;2022-12-20T16:38:36;2.80;;;2.60;;
15063;SDS011;7631;52.088;5.088;2022-12-20T16:41:09;2.80;;;2.60;;
15063;SDS011;7631;52.088;5.088;2022-12-20T16:43:35;2.90;;;2.70;;
15063;SDS011;7631;52.088;5.088;2022-12-20T16:46:00;3.20;;;2.90;;
15063;SDS011;7631;52.088;5.088;2022-12-20T16:48:26;2.80;;;2.60;;